sensor_id;sensor_type;location;lat;lon;timestamp;temperature;humidity
1021;DHT22;499;42.648;23.270;2023-08-07T00:01:00;16.80;38.90
1021;DHT22;499;42.648;23.270;2023-08-07T00:03:27;16.70;39.60
1021;DHT22;499;42.648;23.270;2023-08-07T00:05:54;16.70;39.60
1021;DHT22;499;42.648;23.270;2023-08-07T00:08:21;16.70;39.00
1021;DHT22;499;42.648;23.270;2023-08-07T00:10:48;16.70;39.90
1021;DHT22;499;42.648;23.270;2023-08-07T00:13:17;16.70;40.80
1021;DHT22;499;42.648;23.270;2023-08-07T00:15:44;16.60;41.50
1021;DHT22;499;42.648;23.270;2023-08-07T00:18:11;16.70;41.50
1021;DHT22;499;42.648;23.270;2023-08-07T00:20:38;16.60;41.50
1021;DHT22;499;42.648;23.270;2023-08-07T00:23:05;16.60;41.50
1021;DHT22;499;42.648;23.270;2023-08-07T00:25:32;16.60;42.20
1021;DHT22;499;42.648;23.270;2023-08-07T00:27:59;16.50;42.20
1021;DHT22;499;42.648;23.270;2023-08-07T00:30:28;16.50;42.20
1021;DHT22;499;42.648;23.270;2023-08-07T00:32:55;16.60;41.40
1021;DHT22;499;42.648;23.270;2023-08-07T00:35:22;16.60;41.50
1021;DHT22;499;42.648;23.270;2023-08-07T00:37:49;16.60;40.30
1021;DHT22;499;42.648;23.270;2023-08-07T00:40:17;16.70;39.70
1021;DHT22;499;42.648;23.270;2023-08-07T00:42:44;16.70;40.50
1021;DHT22;499;42.648;23.270;2023-08-07T00:45:11;16.60;39.80
1021;DHT22;499;42.648;23.270;2023-08-07T00:47:40;16.70;40.60
1021;DHT22;499;42.648;23.270;2023-08-07T00:50:08;16.60;41.40
1021;DHT22;499;42.648;23.270;2023-08-07T00:52:35;16.70;40.30
1021;DHT22;499;42.648;23.270;2023-08-07T00:55:02;16.80;41.70
1021;DHT22;499;42.648;23.270;2023-08-07T00:57:30;16.70;40.30
1021;DHT22;499;42.648;23.270;2023-08-07T00:59:59;16.70;41.60
1021;DHT22;499;42.648;23.270;2023-08-07T01:02:26;16.70;41.60
1021;DHT22;499;42.648;23.270;2023-08-07T01:04:54;16.70;42.80
1021;DHT22;499;42.648;23.270;2023-08-07T01:07:21;16.80;42.10
1021;DHT22;499;42.648;23.270;2023-08-07T01:09:48;16.80;41.70
1021;DHT22;499;42.648;23.270;2023-08-07T01:12:18;16.70;41.60
1021;DHT22;499;42.648;23.270;2023-08-07T01:14:52;16.70;42.80
1021;DHT22;499;42.648;23.270;2023-08-07T01:17:23;16.70;43.90
1021;DHT22;499;42.648;23.270;2023-08-07T01:19:51;16.70;43.70
1021;DHT22;499;42.648;23.270;2023-08-07T01:22:20;16.70;44.40
1021;DHT22;499;42.648;23.270;2023-08-07T01:24:49;16.70;44.40
1021;DHT22;499;42.648;23.270;2023-08-07T01:27:30;16.60;46.20
1021;DHT22;499;42.648;23.270;2023-08-07T01:30:06;16.40;46.40
1021;DHT22;499;42.648;23.270;2023-08-07T01:32:40;16.30;50.60
1021;DHT22;499;42.648;23.270;2023-08-07T01:35:11;16.10;53.90
1021;DHT22;499;42.648;23.270;2023-08-07T01:37:41;15.80;57.40
1021;DHT22;499;42.648;23.270;2023-08-07T01:40:10;15.70;59.70
1021;DHT22;499;42.648;23.270;2023-08-07T01:42:38;15.60;60.20
1021;DHT22;499;42.648;23.270;2023-08-07T01:45:06;15.60;62.20
1021;DHT22;499;42.648;23.270;2023-08-07T01:47:34;15.50;62.00
1021;DHT22;499;42.648;23.270;2023-08-07T01:50:01;15.60;62.10
1021;DHT22;499;42.648;23.270;2023-08-07T01:52:28;15.60;61.60
1021;DHT22;499;42.648;23.270;2023-08-07T01:54:57;15.60;62.50
1021;DHT22;499;42.648;23.270;2023-08-07T01:57:24;15.60;61.90
1021;DHT22;499;42.648;23.270;2023-08-07T01:59:52;15.50;62.90
1021;DHT22;499;42.648;23.270;2023-08-07T02:02:19;15.50;63.00
1021;DHT22;499;42.648;23.270;2023-08-07T02:04:46;15.60;61.70
1021;DHT22;499;42.648;23.270;2023-08-07T02:07:13;15.50;60.70
1021;DHT22;499;42.648;23.270;2023-08-07T02:09:40;15.50;62.50
1021;DHT22;499;42.648;23.270;2023-08-07T02:12:08;15.50;61.50
1021;DHT22;499;42.648;23.270;2023-08-07T02:14:35;15.50;60.90
1021;DHT22;499;42.648;23.270;2023-08-07T02:17:03;15.50;60.70
1021;DHT22;499;42.648;23.270;2023-08-07T02:19:30;15.40;58.90
1021;DHT22;499;42.648;23.270;2023-08-07T02:21:57;15.40;58.90
1021;DHT22;499;42.648;23.270;2023-08-07T02:24:24;15.40;59.40
1021;DHT22;499;42.648;23.270;2023-08-07T02:26:51;15.50;56.70
1021;DHT22;499;42.648;23.270;2023-08-07T02:29:20;15.50;55.70
1021;DHT22;499;42.648;23.270;2023-08-07T02:31:47;15.50;54.50
1021;DHT22;499;42.648;23.270;2023-08-07T02:34:14;15.50;54.40
1021;DHT22;499;42.648;23.270;2023-08-07T02:36:41;15.60;54.60
1021;DHT22;499;42.648;23.270;2023-08-07T02:39:08;15.60;54.50
1021;DHT22;499;42.648;23.270;2023-08-07T02:41:35;15.60;53.10
1021;DHT22;499;42.648;23.270;2023-08-07T02:44:02;15.50;54.50
1021;DHT22;499;42.648;23.270;2023-08-07T02:46:30;15.50;54.50
1021;DHT22;499;42.648;23.270;2023-08-07T02:48:57;15.50;54.80
1021;DHT22;499;42.648;23.270;2023-08-07T02:51:24;15.60;52.80
1021;DHT22;499;42.648;23.270;2023-08-07T02:53:51;15.60;54.00
1021;DHT22;499;42.648;23.270;2023-08-07T02:56:18;15.60;53.40
1021;DHT22;499;42.648;23.270;2023-08-07T02:58:46;15.60;53.60
1021;DHT22;499;42.648;23.270;2023-08-07T03:01:13;15.60;54.60
1021;DHT22;499;42.648;23.270;2023-08-07T03:03:41;15.60;53.50
1021;DHT22;499;42.648;23.270;2023-08-07T03:06:08;15.70;52.80
1021;DHT22;499;42.648;23.270;2023-08-07T03:08:35;15.80;50.40
1021;DHT22;499;42.648;23.270;2023-08-07T03:11:02;15.80;51.80
1021;DHT22;499;42.648;23.270;2023-08-07T03:13:30;15.70;53.30
1021;DHT22;499;42.648;23.270;2023-08-07T03:16:00;15.50;55.50
1021;DHT22;499;42.648;23.270;2023-08-07T03:18:27;15.50;57.70
1021;DHT22;499;42.648;23.270;2023-08-07T03:20:56;15.50;60.10
1021;DHT22;499;42.648;23.270;2023-08-07T03:23:23;15.50;63.80
1021;DHT22;499;42.648;23.270;2023-08-07T03:25:51;15.50;64.40
1021;DHT22;499;42.648;23.270;2023-08-07T03:28:28;15.40;66.80
1021;DHT22;499;42.648;23.270;2023-08-07T03:30:55;15.40;68.90
1021;DHT22;499;42.648;23.270;2023-08-07T03:33:22;15.40;70.20
1021;DHT22;499;42.648;23.270;2023-08-07T03:35:49;15.50;70.50
1021;DHT22;499;42.648;23.270;2023-08-07T03:38:17;15.50;70.70
1021;DHT22;499;42.648;23.270;2023-08-07T03:40:45;15.50;71.40
1021;DHT22;499;42.648;23.270;2023-08-07T03:43:12;15.50;72.10
1021;DHT22;499;42.648;23.270;2023-08-07T03:45:39;15.50;73.60
1021;DHT22;499;42.648;23.270;2023-08-07T03:48:06;15.50;75.30
1021;DHT22;499;42.648;23.270;2023-08-07T03:50:34;15.50;75.50
1021;DHT22;499;42.648;23.270;2023-08-07T03:53:03;15.50;76.70
1021;DHT22;499;42.648;23.270;2023-08-07T03:55:34;15.50;76.70
1021;DHT22;499;42.648;23.270;2023-08-07T03:58:02;15.60;76.40
1021;DHT22;499;42.648;23.270;2023-08-07T04:00:29;15.70;76.80
1021;DHT22;499;42.648;23.270;2023-08-07T04:02:56;15.80;71.20
1021;DHT22;499;42.648;23.270;2023-08-07T04:05:23;16.00;67.50
1021;DHT22;499;42.648;23.270;2023-08-07T04:07:50;16.10;63.10
1021;DHT22;499;42.648;23.270;2023-08-07T04:10:17;16.20;60.00
1021;DHT22;499;42.648;23.270;2023-08-07T04:12:45;16.20;58.40
1021;DHT22;499;42.648;23.270;2023-08-07T04:15:13;16.30;58.00
1021;DHT22;499;42.648;23.270;2023-08-07T04:17:40;16.30;58.30
1021;DHT22;499;42.648;23.270;2023-08-07T04:20:08;16.10;59.50
1021;DHT22;499;42.648;23.270;2023-08-07T04:22:35;16.00;58.10
1021;DHT22;499;42.648;23.270;2023-08-07T04:25:03;16.00;58.60
1021;DHT22;499;42.648;23.270;2023-08-07T04:27:30;16.00;59.40
1021;DHT22;499;42.648;23.270;2023-08-07T04:29:58;16.00;59.10
1021;DHT22;499;42.648;23.270;2023-08-07T04:32:25;16.00;59.40
1021;DHT22;499;42.648;23.270;2023-08-07T04:34:52;16.10;59.00
1021;DHT22;499;42.648;23.270;2023-08-07T04:37:20;16.20;59.50
1021;DHT22;499;42.648;23.270;2023-08-07T04:39:47;16.20;57.30
1021;DHT22;499;42.648;23.270;2023-08-07T04:42:14;16.20;55.10
1021;DHT22;499;42.648;23.270;2023-08-07T04:44:57;16.30;56.80
1021;DHT22;499;42.648;23.270;2023-08-07T04:47:24;16.40;55.80
1021;DHT22;499;42.648;23.270;2023-08-07T04:49:51;16.40;55.30
1021;DHT22;499;42.648;23.270;2023-08-07T04:52:19;16.40;53.90
1021;DHT22;499;42.648;23.270;2023-08-07T04:54:46;16.50;55.10
1021;DHT22;499;42.648;23.270;2023-08-07T04:57:13;16.50;53.50
1021;DHT22;499;42.648;23.270;2023-08-07T04:59:40;16.50;54.70
1021;DHT22;499;42.648;23.270;2023-08-07T05:02:08;16.60;50.90
1021;DHT22;499;42.648;23.270;2023-08-07T05:04:35;16.60;52.60
1021;DHT22;499;42.648;23.270;2023-08-07T05:07:03;16.60;51.60
1021;DHT22;499;42.648;23.270;2023-08-07T05:09:30;16.50;53.30
1021;DHT22;499;42.648;23.270;2023-08-07T05:11:57;16.40;53.00
1021;DHT22;499;42.648;23.270;2023-08-07T05:14:24;16.40;54.20
1021;DHT22;499;42.648;23.270;2023-08-07T05:16:51;16.30;55.10
1021;DHT22;499;42.648;23.270;2023-08-07T05:19:21;16.30;55.20
1021;DHT22;499;42.648;23.270;2023-08-07T05:21:48;16.40;54.90
1021;DHT22;499;42.648;23.270;2023-08-07T05:24:16;16.40;54.20
1021;DHT22;499;42.648;23.270;2023-08-07T05:26:43;16.40;53.40
1021;DHT22;499;42.648;23.270;2023-08-07T05:29:10;16.30;52.70
1021;DHT22;499;42.648;23.270;2023-08-07T05:31:38;16.30;52.70
1021;DHT22;499;42.648;23.270;2023-08-07T05:34:05;16.40;54.60
1021;DHT22;499;42.648;23.270;2023-08-07T05:36:33;16.50;52.30
1021;DHT22;499;42.648;23.270;2023-08-07T05:39:00;16.50;50.80
1021;DHT22;499;42.648;23.270;2023-08-07T05:41:29;16.60;50.90
1021;DHT22;499;42.648;23.270;2023-08-07T05:43:56;16.70;50.90
1021;DHT22;499;42.648;23.270;2023-08-07T05:46:23;16.80;47.80
1021;DHT22;499;42.648;23.270;2023-08-07T05:48:50;16.70;48.70
1021;DHT22;499;42.648;23.270;2023-08-07T05:51:17;16.80;48.80
1021;DHT22;499;42.648;23.270;2023-08-07T05:53:46;16.80;50.20
1021;DHT22;499;42.648;23.270;2023-08-07T05:56:13;16.80;45.60
1021;DHT22;499;42.648;23.270;2023-08-07T05:58:40;16.80;47.00
1021;DHT22;499;42.648;23.270;2023-08-07T06:04:51;16.90;48.80
1021;DHT22;499;42.648;23.270;2023-08-07T06:07:18;17.00;47.40
1021;DHT22;499;42.648;23.270;2023-08-07T06:09:47;17.10;46.60
1021;DHT22;499;42.648;23.270;2023-08-07T06:12:14;17.20;47.70
1021;DHT22;499;42.648;23.270;2023-08-07T06:14:41;17.30;45.00
1021;DHT22;499;42.648;23.270;2023-08-07T06:17:08;17.40;42.30
1021;DHT22;499;42.648;23.270;2023-08-07T06:19:35;17.40;44.10
1021;DHT22;499;42.648;23.270;2023-08-07T06:22:03;17.50;43.20
1021;DHT22;499;42.648;23.270;2023-08-07T06:24:30;17.50;41.00
1021;DHT22;499;42.648;23.270;2023-08-07T06:26:58;17.60;42.30
1021;DHT22;499;42.648;23.270;2023-08-07T06:29:25;17.70;40.20
1021;DHT22;499;42.648;23.270;2023-08-07T06:31:52;18.00;37.30
1021;DHT22;499;42.648;23.270;2023-08-07T06:34:19;18.00;33.00
1021;DHT22;499;42.648;23.270;2023-08-07T06:36:46;18.20;31.90
1021;DHT22;499;42.648;23.270;2023-08-07T06:39:13;18.20;30.70
1021;DHT22;499;42.648;23.270;2023-08-07T06:41:40;18.30;28.80
1021;DHT22;499;42.648;23.270;2023-08-07T06:44:09;18.30;28.80
1021;DHT22;499;42.648;23.270;2023-08-07T06:46:36;18.40;28.00
1021;DHT22;499;42.648;23.270;2023-08-07T06:49:03;18.50;26.40
1021;DHT22;499;42.648;23.270;2023-08-07T06:51:30;18.60;25.60
1021;DHT22;499;42.648;23.270;2023-08-07T06:53:57;18.70;25.30
1021;DHT22;499;42.648;23.270;2023-08-07T06:56:24;18.90;26.40
1021;DHT22;499;42.648;23.270;2023-08-07T06:58:51;19.00;27.00
1021;DHT22;499;42.648;23.270;2023-08-07T07:01:19;18.90;25.40
1021;DHT22;499;42.648;23.270;2023-08-07T07:03:46;19.00;26.00
1021;DHT22;499;42.648;23.270;2023-08-07T07:06:18;19.00;23.90
1021;DHT22;499;42.648;23.270;2023-08-07T07:08:46;19.00;25.40
1021;DHT22;499;42.648;23.270;2023-08-07T07:11:14;19.10;25.00
1021;DHT22;499;42.648;23.270;2023-08-07T07:13:41;19.20;24.00
1021;DHT22;499;42.648;23.270;2023-08-07T07:16:08;19.30;24.00
1021;DHT22;499;42.648;23.270;2023-08-07T07:18:38;19.40;23.50
1021;DHT22;499;42.648;23.270;2023-08-07T07:21:05;19.30;23.90
1021;DHT22;499;42.648;23.270;2023-08-07T07:23:33;19.40;25.10
1021;DHT22;499;42.648;23.270;2023-08-07T07:26:00;19.50;24.40
1021;DHT22;499;42.648;23.270;2023-08-07T07:28:27;19.60;23.90
1021;DHT22;499;42.648;23.270;2023-08-07T07:30:54;19.60;23.90
1021;DHT22;499;42.648;23.270;2023-08-07T07:33:21;19.70;23.70
1021;DHT22;499;42.648;23.270;2023-08-07T07:35:50;19.60;22.70
1021;DHT22;499;42.648;23.270;2023-08-07T07:38:17;19.60;22.80
1021;DHT22;499;42.648;23.270;2023-08-07T07:40:44;19.60;22.20
1021;DHT22;499;42.648;23.270;2023-08-07T07:43:11;19.60;21.10
1021;DHT22;499;42.648;23.270;2023-08-07T07:45:38;19.60;22.50
1021;DHT22;499;42.648;23.270;2023-08-07T07:48:05;19.70;22.00
1021;DHT22;499;42.648;23.270;2023-08-07T07:50:33;19.90;22.00
1021;DHT22;499;42.648;23.270;2023-08-07T07:53:03;19.90;20.80
1021;DHT22;499;42.648;23.270;2023-08-07T07:55:30;19.90;20.70
1021;DHT22;499;42.648;23.270;2023-08-07T07:57:57;20.00;20.80
1021;DHT22;499;42.648;23.270;2023-08-07T08:00:24;20.20;20.60
1021;DHT22;499;42.648;23.270;2023-08-07T08:02:52;20.20;20.40
1021;DHT22;499;42.648;23.270;2023-08-07T08:05:20;20.30;19.20
1021;DHT22;499;42.648;23.270;2023-08-07T08:07:47;20.30;20.20
1021;DHT22;499;42.648;23.270;2023-08-07T08:10:15;20.30;19.90
1021;DHT22;499;42.648;23.270;2023-08-07T08:12:42;20.40;21.00
1021;DHT22;499;42.648;23.270;2023-08-07T08:15:09;20.50;19.00
1021;DHT22;499;42.648;23.270;2023-08-07T08:17:37;20.60;19.10
1021;DHT22;499;42.648;23.270;2023-08-07T08:20:05;20.60;19.20
1021;DHT22;499;42.648;23.270;2023-08-07T08:22:32;20.60;19.40
1021;DHT22;499;42.648;23.270;2023-08-07T08:25:00;20.80;18.70
1021;DHT22;499;42.648;23.270;2023-08-07T08:27:28;20.80;18.70
1021;DHT22;499;42.648;23.270;2023-08-07T08:29:56;20.90;19.30
1021;DHT22;499;42.648;23.270;2023-08-07T08:32:23;21.00;18.80
1021;DHT22;499;42.648;23.270;2023-08-07T08:34:50;20.90;18.20
1021;DHT22;499;42.648;23.270;2023-08-07T08:37:17;21.00;18.80
1021;DHT22;499;42.648;23.270;2023-08-07T08:39:44;21.10;19.00
1021;DHT22;499;42.648;23.270;2023-08-07T08:42:12;21.30;19.00
1021;DHT22;499;42.648;23.270;2023-08-07T08:44:41;21.60;18.40
1021;DHT22;499;42.648;23.270;2023-08-07T08:47:13;21.70;17.00
1021;DHT22;499;42.648;23.270;2023-08-07T08:49:45;21.70;17.60
1021;DHT22;499;42.648;23.270;2023-08-07T08:52:13;21.80;17.20
1021;DHT22;499;42.648;23.270;2023-08-07T08:54:40;21.70;16.60
1021;DHT22;499;42.648;23.270;2023-08-07T08:57:08;21.80;16.30
1021;DHT22;499;42.648;23.270;2023-08-07T08:59:35;21.70;17.10
1021;DHT22;499;42.648;23.270;2023-08-07T09:02:04;21.80;18.30
1021;DHT22;499;42.648;23.270;2023-08-07T09:04:32;22.00;17.50
1021;DHT22;499;42.648;23.270;2023-08-07T09:06:59;22.10;17.00
1021;DHT22;499;42.648;23.270;2023-08-07T09:09:27;22.20;16.50
1021;DHT22;499;42.648;23.270;2023-08-07T09:11:57;22.30;15.60
1021;DHT22;499;42.648;23.270;2023-08-07T09:14:27;22.30;16.00
1021;DHT22;499;42.648;23.270;2023-08-07T09:16:59;22.30;15.90
1021;DHT22;499;42.648;23.270;2023-08-07T09:19:29;22.30;16.90
1021;DHT22;499;42.648;23.270;2023-08-07T09:21:56;22.40;15.40
1021;DHT22;499;42.648;23.270;2023-08-07T09:24:23;22.10;15.40
1021;DHT22;499;42.648;23.270;2023-08-07T09:26:51;22.30;17.10
1021;DHT22;499;42.648;23.270;2023-08-07T09:29:20;22.40;15.70
1021;DHT22;499;42.648;23.270;2023-08-07T09:31:47;22.50;15.10
1021;DHT22;499;42.648;23.270;2023-08-07T09:34:14;22.50;15.40
1021;DHT22;499;42.648;23.270;2023-08-07T09:36:47;22.50;16.10
1021;DHT22;499;42.648;23.270;2023-08-07T09:39:14;22.70;15.60
1021;DHT22;499;42.648;23.270;2023-08-07T09:41:41;22.80;15.50
1021;DHT22;499;42.648;23.270;2023-08-07T09:44:10;23.00;14.80
1021;DHT22;499;42.648;23.270;2023-08-07T09:46:43;23.10;14.70
1021;DHT22;499;42.648;23.270;2023-08-07T09:49:11;23.00;14.10
1021;DHT22;499;42.648;23.270;2023-08-07T09:51:44;22.90;14.20
1021;DHT22;499;42.648;23.270;2023-08-07T09:54:13;22.80;14.50
1021;DHT22;499;42.648;23.270;2023-08-07T09:56:40;23.00;14.30
1021;DHT22;499;42.648;23.270;2023-08-07T09:59:08;22.90;13.40
1021;DHT22;499;42.648;23.270;2023-08-07T10:01:37;23.00;14.10
1021;DHT22;499;42.648;23.270;2023-08-07T10:04:05;23.00;13.50
1021;DHT22;499;42.648;23.270;2023-08-07T10:06:32;22.90;13.40
1021;DHT22;499;42.648;23.270;2023-08-07T10:09:01;22.90;13.80
1021;DHT22;499;42.648;23.270;2023-08-07T10:11:31;22.80;13.80
1021;DHT22;499;42.648;23.270;2023-08-07T10:13:59;22.90;15.20
1021;DHT22;499;42.648;23.270;2023-08-07T10:16:26;23.00;13.60
1021;DHT22;499;42.648;23.270;2023-08-07T10:18:54;23.00;14.20
1021;DHT22;499;42.648;23.270;2023-08-07T10:21:22;23.10;15.00
1021;DHT22;499;42.648;23.270;2023-08-07T10:23:53;23.30;13.70
1021;DHT22;499;42.648;23.270;2023-08-07T10:26:21;23.50;12.30
1021;DHT22;499;42.648;23.270;2023-08-07T10:28:51;23.50;12.30
1021;DHT22;499;42.648;23.270;2023-08-07T10:31:20;23.60;12.40
1021;DHT22;499;42.648;23.270;2023-08-07T10:33:49;23.70;11.80
1021;DHT22;499;42.648;23.270;2023-08-07T10:36:16;23.80;8.90
1021;DHT22;499;42.648;23.270;2023-08-07T10:38:43;23.90;9.30
1021;DHT22;499;42.648;23.270;2023-08-07T10:41:14;24.10;9.70
1021;DHT22;499;42.648;23.270;2023-08-07T10:43:42;24.10;8.30
1021;DHT22;499;42.648;23.270;2023-08-07T10:46:12;24.20;8.60
1021;DHT22;499;42.648;23.270;2023-08-07T10:48:41;24.10;8.50
1021;DHT22;499;42.648;23.270;2023-08-07T10:51:08;23.90;9.10
1021;DHT22;499;42.648;23.270;2023-08-07T10:53:36;24.00;8.80
1021;DHT22;499;42.648;23.270;2023-08-07T10:56:05;24.20;9.40
1021;DHT22;499;42.648;23.270;2023-08-07T10:58:36;24.40;8.50
1021;DHT22;499;42.648;23.270;2023-08-07T11:01:40;24.40;8.40
1021;DHT22;499;42.648;23.270;2023-08-07T11:04:09;24.50;8.80
1021;DHT22;499;42.648;23.270;2023-08-07T11:06:38;24.70;8.90
1021;DHT22;499;42.648;23.270;2023-08-07T11:09:06;24.80;9.00
1021;DHT22;499;42.648;23.270;2023-08-07T11:11:36;24.60;8.80
1021;DHT22;499;42.648;23.270;2023-08-07T11:14:05;24.90;9.40
1021;DHT22;499;42.648;23.270;2023-08-07T11:16:34;25.00;9.10
1021;DHT22;499;42.648;23.270;2023-08-07T11:19:02;25.20;8.30
1021;DHT22;499;42.648;23.270;2023-08-07T11:21:30;25.30;8.20
1021;DHT22;499;42.648;23.270;2023-08-07T11:23:58;25.50;7.90
1021;DHT22;499;42.648;23.270;2023-08-07T11:26:25;25.60;8.40
1021;DHT22;499;42.648;23.270;2023-08-07T11:28:53;25.70;7.00
1021;DHT22;499;42.648;23.270;2023-08-07T11:31:21;25.60;7.80
1021;DHT22;499;42.648;23.270;2023-08-07T11:33:52;25.80;7.80
1021;DHT22;499;42.648;23.270;2023-08-07T11:36:19;25.80;8.80
1021;DHT22;499;42.648;23.270;2023-08-07T11:38:46;25.80;7.80
1021;DHT22;499;42.648;23.270;2023-08-07T11:41:14;25.80;8.50
1021;DHT22;499;42.648;23.270;2023-08-07T11:43:42;25.90;7.80
1021;DHT22;499;42.648;23.270;2023-08-07T11:46:10;25.90;8.00
1021;DHT22;499;42.648;23.270;2023-08-07T11:48:39;25.80;8.50
1021;DHT22;499;42.648;23.270;2023-08-07T11:51:08;25.80;8.00
1021;DHT22;499;42.648;23.270;2023-08-07T11:53:36;25.80;8.70
1021;DHT22;499;42.648;23.270;2023-08-07T11:56:05;25.70;8.60
1021;DHT22;499;42.648;23.270;2023-08-07T11:58:35;25.50;8.90
1021;DHT22;499;42.648;23.270;2023-08-07T12:01:04;25.50;8.90
1021;DHT22;499;42.648;23.270;2023-08-07T12:03:32;25.20;9.20
1021;DHT22;499;42.648;23.270;2023-08-07T12:06:05;25.10;9.30
1021;DHT22;499;42.648;23.270;2023-08-07T12:08:34;25.30;9.40
1021;DHT22;499;42.648;23.270;2023-08-07T12:11:02;25.60;9.50
1021;DHT22;499;42.648;23.270;2023-08-07T12:13:31;25.60;9.00
1021;DHT22;499;42.648;23.270;2023-08-07T12:16:01;25.70;9.10
1021;DHT22;499;42.648;23.270;2023-08-07T12:18:30;25.70;9.30
1021;DHT22;499;42.648;23.270;2023-08-07T12:20:58;25.50;9.40
1021;DHT22;499;42.648;23.270;2023-08-07T12:23:26;25.30;9.80
1021;DHT22;499;42.648;23.270;2023-08-07T12:25:55;25.30;9.70
1021;DHT22;499;42.648;23.270;2023-08-07T12:28:22;25.50;9.00
1021;DHT22;499;42.648;23.270;2023-08-07T12:30:50;25.50;9.40
1021;DHT22;499;42.648;23.270;2023-08-07T12:33:17;25.50;9.70
1021;DHT22;499;42.648;23.270;2023-08-07T12:35:45;25.40;9.30
1021;DHT22;499;42.648;23.270;2023-08-07T12:38:12;25.50;9.40
1021;DHT22;499;42.648;23.270;2023-08-07T12:40:41;25.60;9.40
1021;DHT22;499;42.648;23.270;2023-08-07T12:43:09;25.60;9.40
1021;DHT22;499;42.648;23.270;2023-08-07T12:45:37;25.30;9.30
1021;DHT22;499;42.648;23.270;2023-08-07T12:48:04;25.60;9.50
1021;DHT22;499;42.648;23.270;2023-08-07T12:50:33;25.80;9.50
1021;DHT22;499;42.648;23.270;2023-08-07T12:53:00;25.70;9.50
1021;DHT22;499;42.648;23.270;2023-08-07T12:55:27;25.70;10.00
1021;DHT22;499;42.648;23.270;2023-08-07T12:57:55;25.50;10.40
1021;DHT22;499;42.648;23.270;2023-08-07T13:00:25;25.20;11.00
1021;DHT22;499;42.648;23.270;2023-08-07T13:02:52;25.20;10.90
1021;DHT22;499;42.648;23.270;2023-08-07T13:05:21;25.30;11.40
1021;DHT22;499;42.648;23.270;2023-08-07T13:07:49;25.30;11.10
1021;DHT22;499;42.648;23.270;2023-08-07T13:10:18;25.20;11.30
1021;DHT22;499;42.648;23.270;2023-08-07T13:12:47;25.10;11.40
1021;DHT22;499;42.648;23.270;2023-08-07T13:15:15;25.10;11.90
1021;DHT22;499;42.648;23.270;2023-08-07T13:17:44;25.00;11.90
1021;DHT22;499;42.648;23.270;2023-08-07T13:20:13;24.80;12.10
1021;DHT22;499;42.648;23.270;2023-08-07T13:22:41;24.80;12.10
1021;DHT22;499;42.648;23.270;2023-08-07T13:25:09;24.70;11.70
1021;DHT22;499;42.648;23.270;2023-08-07T13:27:37;24.70;11.70
1021;DHT22;499;42.648;23.270;2023-08-07T13:30:05;25.00;12.30
1021;DHT22;499;42.648;23.270;2023-08-07T13:32:32;25.00;12.10
1021;DHT22;499;42.648;23.270;2023-08-07T13:35:01;24.60;12.60
1021;DHT22;499;42.648;23.270;2023-08-07T13:37:29;24.50;13.00
1021;DHT22;499;42.648;23.270;2023-08-07T13:39:56;24.30;12.80
1021;DHT22;499;42.648;23.270;2023-08-07T13:42:24;24.30;12.90
1021;DHT22;499;42.648;23.270;2023-08-07T13:44:51;24.10;12.80
1021;DHT22;499;42.648;23.270;2023-08-07T13:47:18;23.80;13.20
1021;DHT22;499;42.648;23.270;2023-08-07T13:49:46;23.80;14.70
1021;DHT22;499;42.648;23.270;2023-08-07T13:52:15;23.70;14.10
1021;DHT22;499;42.648;23.270;2023-08-07T13:54:42;23.70;13.70
1021;DHT22;499;42.648;23.270;2023-08-07T13:57:09;23.70;14.20
1021;DHT22;499;42.648;23.270;2023-08-07T13:59:36;23.70;13.80
1021;DHT22;499;42.648;23.270;2023-08-07T14:02:04;23.40;14.30
1021;DHT22;499;42.648;23.270;2023-08-07T14:04:31;23.30;14.50
1021;DHT22;499;42.648;23.270;2023-08-07T14:06:59;23.20;14.80
1021;DHT22;499;42.648;23.270;2023-08-07T14:09:27;23.20;15.30
1021;DHT22;499;42.648;23.270;2023-08-07T14:11:54;23.20;15.20
1021;DHT22;499;42.648;23.270;2023-08-07T14:14:22;23.30;14.50
1021;DHT22;499;42.648;23.270;2023-08-07T14:16:49;23.20;14.50
1021;DHT22;499;42.648;23.270;2023-08-07T14:19:16;23.20;14.60
1021;DHT22;499;42.648;23.270;2023-08-07T14:21:43;23.10;14.90
1021;DHT22;499;42.648;23.270;2023-08-07T14:24:10;22.90;15.10
1021;DHT22;499;42.648;23.270;2023-08-07T14:26:39;22.90;15.20
1021;DHT22;499;42.648;23.270;2023-08-07T14:29:06;22.80;15.00
1021;DHT22;499;42.648;23.270;2023-08-07T14:31:33;22.80;15.20
1021;DHT22;499;42.648;23.270;2023-08-07T14:34:00;22.60;15.80
1021;DHT22;499;42.648;23.270;2023-08-07T14:36:28;22.70;16.60
1021;DHT22;499;42.648;23.270;2023-08-07T14:38:55;22.70;15.90
1021;DHT22;499;42.648;23.270;2023-08-07T14:41:22;22.60;16.20
1021;DHT22;499;42.648;23.270;2023-08-07T14:43:51;22.70;16.60
1021;DHT22;499;42.648;23.270;2023-08-07T14:46:19;22.50;16.50
1021;DHT22;499;42.648;23.270;2023-08-07T14:48:47;22.50;16.60
1021;DHT22;499;42.648;23.270;2023-08-07T14:51:14;22.40;16.70
1021;DHT22;499;42.648;23.270;2023-08-07T14:53:42;22.40;17.30
1021;DHT22;499;42.648;23.270;2023-08-07T14:56:08;22.50;17.20
1021;DHT22;499;42.648;23.270;2023-08-07T14:58:35;22.30;16.90
1021;DHT22;499;42.648;23.270;2023-08-07T15:01:04;22.20;17.40
1021;DHT22;499;42.648;23.270;2023-08-07T15:03:31;22.30;17.30
1021;DHT22;499;42.648;23.270;2023-08-07T15:05:58;22.20;17.40
1021;DHT22;499;42.648;23.270;2023-08-07T15:08:25;22.20;17.70
1021;DHT22;499;42.648;23.270;2023-08-07T15:10:53;22.20;18.10
1021;DHT22;499;42.648;23.270;2023-08-07T15:13:20;22.00;18.30
1021;DHT22;499;42.648;23.270;2023-08-07T15:15:47;21.80;19.30
1021;DHT22;499;42.648;23.270;2023-08-07T15:18:15;21.70;19.40
1021;DHT22;499;42.648;23.270;2023-08-07T15:20:42;21.80;19.30
1021;DHT22;499;42.648;23.270;2023-08-07T15:23:10;21.70;19.30
1021;DHT22;499;42.648;23.270;2023-08-07T15:25:37;21.60;19.20
1021;DHT22;499;42.648;23.270;2023-08-07T15:28:06;21.60;19.30
1021;DHT22;499;42.648;23.270;2023-08-07T15:30:33;21.60;19.20
1021;DHT22;499;42.648;23.270;2023-08-07T15:33:00;21.50;19.20
1021;DHT22;499;42.648;23.270;2023-08-07T15:35:30;21.50;19.20
1021;DHT22;499;42.648;23.270;2023-08-07T15:37:58;21.70;19.60
1021;DHT22;499;42.648;23.270;2023-08-07T15:40:25;21.50;19.70
1021;DHT22;499;42.648;23.270;2023-08-07T15:42:53;21.50;19.70
1021;DHT22;499;42.648;23.270;2023-08-07T15:45:20;21.50;20.10
1021;DHT22;499;42.648;23.270;2023-08-07T15:47:48;21.40;20.60
1021;DHT22;499;42.648;23.270;2023-08-07T15:50:15;21.30;21.10
1021;DHT22;499;42.648;23.270;2023-08-07T15:52:43;21.20;21.80
1021;DHT22;499;42.648;23.270;2023-08-07T15:55:11;21.10;21.80
1021;DHT22;499;42.648;23.270;2023-08-07T15:57:38;21.00;22.40
1021;DHT22;499;42.648;23.270;2023-08-07T16:00:07;20.80;22.70
1021;DHT22;499;42.648;23.270;2023-08-07T16:02:35;20.80;22.70
1021;DHT22;499;42.648;23.270;2023-08-07T16:05:04;20.80;23.60
1021;DHT22;499;42.648;23.270;2023-08-07T16:07:31;21.00;24.00
1021;DHT22;499;42.648;23.270;2023-08-07T16:10:00;20.90;24.50
1021;DHT22;499;42.648;23.270;2023-08-07T16:12:27;20.80;25.10